首页
METAR-TAF:

METAR-TAF

机场 :

马亚-马亚国际机场

布拉柴维尔, 刚果

纬度: 04-15S, 经度: 015-15E, 海拔: 319米

当前天气观测

该预报发布于37分钟前的07:30 UTC
风速5节,风向西转西南
温度 22°C
湿度 88%
气压 1016 hPa
能見度: 2800
多云层高于2000英尺
轻雾,

METAR: FCBB 160730Z 25005KT 2800 BR BKN020 22/20 Q1016 NOSIG

时间: 09:07 (08:07 UTC)

预报

该预报发布于3小时和7分钟前的05:00 UTC
预报有效从16日的 06点(UTC)到 17日的 12点(UTC)
风速3节,风向西
能見度: 4000
少量云层高于2000英尺
轻雾
成为
从 16日的 07点(UTC)到 16日的 09点(UTC)
能見度: 6000
几率 30%
从 16日的 19点(UTC)到 16日的 24点(UTC)
能見度: 4000
轻雾
几率 40%
从 17日的 05点(UTC)到 17日的 09点(UTC)
能見度: 2000
轻雾,

TAF: FCBB 160500Z 1606/1712 27003KT 4000 BR FEW020 BECMG 1607/1609 6000 NSW PROB30 1619/1624 4000 BR PROB40 1705/1709 2000 BR

超过4000个机场的气象观测和天气预报(METAR&TAF报告)。

可查询的气象台以黄色和红色小点在地图上表示。

将鼠标移到小点上方,可查看气象台名称。

然后点击查看天气观测和预报。

如需切换地图:点击带黑十字的绿色按钮放大地图;点击带横线的绿色按钮缩小地图;或者点击绿色箭头查看邻近地区的地图。


METAR-TAF: